Time;durP1;ratioP1;P1;durP2;ratioP2;P2;SDS_P1;SDS_P2;PMS_P1;PMS_P2;Temp;Humidity;BMP_temperature;BMP_pressure;BME280_temperature;BME280_humidity;BME280_pressure;Samples;Min_cycle;Max_cycle;Signal;HPM_P1;HPM_P2
2024/01/05 00:00:14;;;;;;;9.05;5.38;;;;;;;;;;1037102;28;20068;-65
2024/01/05 00:01:05;;;;;;;12.27;5.32;;;;;;;;;;1036740;28;20383;-65
2024/01/05 00:01:42;;;;;;;7.80;5.53;;;;;;;;;;1035573;28;20042;-64
2024/01/05 00:02:13;;;;;;;8.48;5.15;;;;;;;;;;1038516;28;20041;-63
2024/01/05 00:02:43;;;;;;;6.50;4.57;;;;;;;;;;1037822;28;20684;-65
2024/01/05 00:03:13;;;;;;;9.50;5.00;;;;;;;;;;1037616;28;20062;-65
2024/01/05 00:03:44;;;;;;;10.57;4.93;;;;;;;;;;1036133;28;20057;-64
2024/01/05 00:04:15;;;;;;;9.45;5.15;;;;;;;;;;1038374;28;20071;-63
2024/01/05 00:04:46;;;;;;;8.65;5.43;;;;;;;;;;1038125;28;20481;-63
2024/01/05 00:05:16;;;;;;;8.27;4.78;;;;;;;;;;1036321;28;20246;-64
2024/01/05 00:05:47;;;;;;;10.90;6.00;;;;;;;;;;1037862;28;20073;-63
2024/01/05 00:06:17;;;;;;;9.40;5.88;;;;;;;;;;1038283;28;20452;-65
2024/01/05 00:06:49;;;;;;;8.90;6.20;;;;;;;;;;1037938;28;20128;-63
2024/01/05 00:07:20;;;;;;;10.05;5.90;;;;;;;;;;1038283;28;20049;-65
2024/01/05 00:07:52;;;;;;;10.88;6.57;;;;;;;;;;1037986;28;20045;-65
2024/01/05 00:08:22;;;;;;;8.68;6.13;;;;;;;;;;1037604;28;20445;-64
2024/01/05 00:08:53;;;;;;;8.07;6.07;;;;;;;;;;1037963;28;20878;-63
2024/01/05 00:09:23;;;;;;;9.02;6.32;;;;;;;;;;1038788;28;20099;-65
2024/01/05 00:09:54;;;;;;;11.57;6.35;;;;;;;;;;1037027;28;20057;-63
2024/01/05 00:10:24;;;;;;;11.93;6.38;;;;;;;;;;1037643;28;20421;-63
2024/01/05 00:10:55;;;;;;;9.93;6.45;;;;;;;;;;1037086;28;20057;-65
2024/01/05 00:11:25;;;;;;;10.13;6.05;;;;;;;;;;1037531;28;20056;-64
2024/01/05 00:11:56;;;;;;;8.43;5.15;;;;;;;;;;1037712;28;20236;-64
2024/01/05 00:12:27;;;;;;;9.90;6.40;;;;;;;;;;1038499;28;20413;-65
2024/01/05 00:12:57;;;;;;;13.55;6.18;;;;;;;;;;1038024;28;20099;-65
2024/01/05 00:13:28;;;;;;;9.18;6.05;;;;;;;;;;1038009;28;20410;-65
2024/01/05 00:13:58;;;;;;;9.68;6.28;;;;;;;;;;1038145;28;20057;-65
2024/01/05 00:14:29;;;;;;;10.77;5.72;;;;;;;;;;1036795;28;20049;-64
2024/01/05 00:14:59;;;;;;;8.82;5.38;;;;;;;;;;1036682;28;20068;-64
2024/01/05 00:15:30;;;;;;;8.95;6.10;;;;;;;;;;1035956;28;20081;-65
2024/01/05 00:16:01;;;;;;;7.50;5.43;;;;;;;;;;1033639;28;20991;-64
2024/01/05 00:16:31;;;;;;;9.55;6.35;;;;;;;;;;1035009;28;20760;-65
2024/01/05 00:17:02;;;;;;;9.52;6.10;;;;;;;;;;1037196;28;20060;-64
2024/01/05 00:17:32;;;;;;;9.25;6.07;;;;;;;;;;1038221;28;20045;-66
2024/01/05 00:18:04;;;;;;;11.20;5.90;;;;;;;;;;1036631;28;20050;-65
2024/01/05 00:18:36;;;;;;;9.85;6.07;;;;;;;;;;1036841;28;20160;-64
2024/01/05 00:19:06;;;;;;;10.23;6.07;;;;;;;;;;1037792;28;20045;-64
2024/01/05 00:19:37;;;;;;;9.32;6.18;;;;;;;;;;1038241;28;20045;-63
2024/01/05 00:20:08;;;;;;;13.18;6.45;;;;;;;;;;1037919;28;20387;-65
2024/01/05 00:20:39;;;;;;;8.70;4.63;;;;;;;;;;1036394;28;20045;-64
2024/01/05 00:21:18;;;;;;;7.95;4.75;;;;;;;;;;1038523;28;20063;-65
2024/01/05 00:21:50;;;;;;;8.27;5.00;;;;;;;;;;1037939;28;20107;-64
2024/01/05 00:22:21;;;;;;;9.15;5.68;;;;;;;;;;1038581;28;20053;-65
2024/01/05 00:22:51;;;;;;;9.32;5.68;;;;;;;;;;1037498;28;20049;-65
2024/01/05 00:23:22;;;;;;;7.57;5.40;;;;;;;;;;1037884;28;20072;-66
2024/01/05 00:23:55;;;;;;;8.85;5.93;;;;;;;;;;1037721;28;20061;-65
2024/01/05 00:24:25;;;;;;;9.35;6.13;;;;;;;;;;1037786;28;20049;-65
2024/01/05 00:24:56;;;;;;;9.70;5.25;;;;;;;;;;1033030;28;20053;-64
2024/01/05 00:25:26;;;;;;;10.77;5.70;;;;;;;;;;1032021;28;20057;-65
2024/01/05 00:25:57;;;;;;;8.48;5.55;;;;;;;;;;1031346;28;20050;-65
2024/01/05 00:26:27;;;;;;;7.57;4.63;;;;;;;;;;1031244;28;20054;-64
2024/01/05 00:26:59;;;;;;;8.32;5.68;;;;;;;;;;1033879;28;20061;-64
2024/01/05 00:27:30;;;;;;;9.48;6.22;;;;;;;;;;1036198;28;20105;-63
2024/01/05 00:28:00;;;;;;;9.68;6.18;;;;;;;;;;1036421;28;20494;-66
2024/01/05 00:28:31;;;;;;;8.88;5.60;;;;;;;;;;1037012;28;20811;-63
2024/01/05 00:29:02;;;;;;;11.18;5.50;;;;;;;;;;1032038;28;20046;-64
2024/01/05 00:29:32;;;;;;;10.07;5.82;;;;;;;;;;1033053;28;20042;-64
2024/01/05 00:30:04;;;;;;;7.78;5.43;;;;;;;;;;1033816;28;20112;-63
2024/01/05 00:30:35;;;;;;;7.50;5.63;;;;;;;;;;1031807;28;20060;-64
2024/01/05 00:31:08;;;;;;;9.35;5.10;;;;;;;;;;1033606;28;20041;-64
2024/01/05 00:31:39;;;;;;;9.40;4.85;;;;;;;;;;1032929;28;20120;-64
2024/01/05 00:32:09;;;;;;;6.78;4.05;;;;;;;;;;1032836;28;20656;-64
2024/01/05 00:32:40;;;;;;;7.45;5.15;;;;;;;;;;1031446;28;20140;-63
2024/01/05 00:33:10;;;;;;;9.68;4.68;;;;;;;;;;1033790;28;20060;-66
2024/01/05 00:33:42;;;;;;;7.80;4.78;;;;;;;;;;1032909;28;20077;-65
2024/01/05 00:34:14;;;;;;;7.50;4.72;;;;;;;;;;1032876;28;20051;-64
2024/01/05 00:34:44;;;;;;;3.85;3.55;;;;;;;;;;1031728;28;20721;-65
2024/01/05 00:35:15;;;;;;;7.22;4.68;;;;;;;;;;1033827;28;20403;-64
2024/01/05 00:35:45;;;;;;;6.35;4.10;;;;;;;;;;1032206;28;20050;-63
2024/01/05 00:36:16;;;;;;;10.52;4.95;;;;;;;;;;1032337;28;20057;-63
2024/01/05 00:36:46;;;;;;;7.72;4.70;;;;;;;;;;1032724;28;20526;-64
2024/01/05 00:37:17;;;;;;;7.53;4.82;;;;;;;;;;1034329;28;20058;-65
2024/01/05 00:37:48;;;;;;;6.97;4.75;;;;;;;;;;1034222;28;20049;-64
2024/01/05 00:38:18;;;;;;;7.38;4.88;;;;;;;;;;1033560;28;20073;-65
2024/01/05 00:38:49;;;;;;;7.30;4.57;;;;;;;;;;1034283;28;20054;-64
2024/01/05 00:39:19;;;;;;;5.18;3.70;;;;;;;;;;1034187;28;20513;-65
2024/01/05 00:39:50;;;;;;;5.80;4.43;;;;;;;;;;1032692;28;20802;-64
2024/01/05 00:40:20;;;;;;;5.38;3.78;;;;;;;;;;1034336;28;20065;-65
2024/01/05 00:40:51;;;;;;;6.10;3.08;;;;;;;;;;1032608;28;20073;-65
2024/01/05 00:41:21;;;;;;;5.78;3.85;;;;;;;;;;1032585;28;20076;-63
2024/01/05 00:41:52;;;;;;;7.53;4.18;;;;;;;;;;1032339;28;21455;-65
2024/01/05 00:42:22;;;;;;;5.30;3.83;;;;;;;;;;1032063;28;20049;-65
2024/01/05 00:42:53;;;;;;;4.40;3.50;;;;;;;;;;1034006;28;20129;-65
2024/01/05 00:43:23;;;;;;;4.07;3.28;;;;;;;;;;1033542;28;20502;-65
2024/01/05 00:43:54;;;;;;;5.35;4.05;;;;;;;;;;1033588;28;20049;-65
2024/01/05 00:44:27;;;;;;;4.50;3.95;;;;;;;;;;1034422;28;20108;-63
2024/01/05 00:44:57;;;;;;;5.43;3.15;;;;;;;;;;1033715;28;20487;-65
2024/01/05 00:45:28;;;;;;;5.60;3.70;;;;;;;;;;1032175;28;20062;-64
2024/01/05 00:45:58;;;;;;;4.95;3.40;;;;;;;;;;1033711;28;20124;-65
2024/01/05 00:46:29;;;;;;;6.63;3.88;;;;;;;;;;1034337;28;20049;-63
2024/01/05 00:46:59;;;;;;;7.10;4.05;;;;;;;;;;1032261;28;21379;-64
2024/01/05 00:47:30;;;;;;;7.15;3.88;;;;;;;;;;1033326;28;20037;-64
2024/01/05 00:48:00;;;;;;;5.07;4.03;;;;;;;;;;1031863;28;20097;-65
2024/01/05 00:48:31;;;;;;;3.72;2.90;;;;;;;;;;1034187;28;20073;-63
2024/01/05 00:49:01;;;;;;;4.78;3.35;;;;;;;;;;1033988;28;20706;-63
2024/01/05 00:49:32;;;;;;;5.90;4.40;;;;;;;;;;1032801;28;20057;-65
2024/01/05 00:50:03;;;;;;;3.10;2.80;;;;;;;;;;1033909;28;20360;-64
2024/01/05 00:50:33;;;;;;;5.25;3.20;;;;;;;;;;1031040;28;20049;-65
2024/01/05 00:51:04;;;;;;;6.82;4.20;;;;;;;;;;1033405;28;20046;-65
2024/01/05 00:51:34;;;;;;;9.85;3.47;;;;;;;;;;1033061;28;20054;-63
2024/01/05 00:52:05;;;;;;;6.25;3.55;;;;;;;;;;1032360;28;20074;-64
2024/01/05 00:52:36;;;;;;;3.85;3.03;;;;;;;;;;1032822;28;20054;-64
2024/01/05 00:53:06;;;;;;;4.38;3.35;;;;;;;;;;1034108;28;20057;-65
2024/01/05 00:53:37;;;;;;;6.93;3.90;;;;;;;;;;1033632;28;20099;-63
2024/01/05 00:54:07;;;;;;;6.20;3.95;;;;;;;;;;1033839;28;20042;-64
2024/01/05 00:54:39;;;;;;;6.63;3.95;;;;;;;;;;1031830;28;20099;-65
2024/01/05 00:55:09;;;;;;;4.53;3.60;;;;;;;;;;1034284;28;22273;-64
2024/01/05 00:55:40;;;;;;;4.38;3.72;;;;;;;;;;1033279;28;20065;-64
2024/01/05 00:56:10;;;;;;;9.45;3.97;;;;;;;;;;1034093;28;20045;-64
2024/01/05 00:56:41;;;;;;;5.72;3.88;;;;;;;;;;1034159;28;20055;-65
2024/01/05 00:57:11;;;;;;;6.20;4.18;;;;;;;;;;1033836;28;20065;-63
2024/01/05 00:57:42;;;;;;;4.63;3.42;;;;;;;;;;1033811;28;20123;-65
2024/01/05 00:58:13;;;;;;;5.90;4.32;;;;;;;;;;1032698;28;20476;-65
2024/01/05 00:58:43;;;;;;;5.70;4.15;;;;;;;;;;1033346;28;20053;-64
2024/01/05 00:59:14;;;;;;;8.82;4.07;;;;;;;;;;1033090;28;20050;-63
2024/01/05 00:59:44;;;;;;;7.30;3.97;;;;;;;;;;1033345;28;20046;-64
2024/01/05 01:00:15;;;;;;;6.22;4.00;;;;;;;;;;1031901;28;20042;-65
2024/01/05 01:00:46;;;;;;;5.38;4.25;;;;;;;;;;1033295;28;20050;-64
2024/01/05 01:01:16;;;;;;;4.45;3.58;;;;;;;;;;1034053;28;20494;-65
2024/01/05 01:01:47;;;;;;;6.43;3.60;;;;;;;;;;1033110;28;20184;-65
2024/01/05 01:02:17;;;;;;;6.30;4.00;;;;;;;;;;1032534;28;20061;-65
2024/01/05 01:02:48;;;;;;;7.82;4.05;;;;;;;;;;1033583;28;20497;-64
2024/01/05 01:03:18;;;;;;;5.32;3.60;;;;;;;;;;1032213;28;20454;-65
2024/01/05 01:03:49;;;;;;;6.78;3.40;;;;;;;;;;1031476;28;20095;-64
2024/01/05 01:04:20;;;;;;;4.55;3.30;;;;;;;;;;1031026;28;20061;-65
2024/01/05 01:04:50;;;;;;;5.95;4.00;;;;;;;;;;1032619;28;20084;-64
2024/01/05 01:05:21;;;;;;;5.10;3.78;;;;;;;;;;1032287;28;20101;-65
2024/01/05 01:05:52;;;;;;;9.18;4.18;;;;;;;;;;1032624;28;20514;-63
2024/01/05 01:06:22;;;;;;;7.10;4.07;;;;;;;;;;1034526;28;20058;-65
2024/01/05 01:06:53;;;;;;;7.22;4.38;;;;;;;;;;1033338;28;20140;-65
2024/01/05 01:07:23;;;;;;;5.85;4.20;;;;;;;;;;1032953;28;20132;-66
2024/01/05 01:07:54;;;;;;;5.65;4.03;;;;;;;;;;1033934;28;20063;-64
2024/01/05 01:08:24;;;;;;;6.45;3.90;;;;;;;;;;1033849;28;20125;-65
2024/01/05 01:08:55;;;;;;;5.68;4.15;;;;;;;;;;1033343;28;20058;-65
2024/01/05 01:09:25;;;;;;;5.20;3.83;;;;;;;;;;1033636;28;20073;-63
2024/01/05 01:09:56;;;;;;;6.63;4.20;;;;;;;;;;1032516;28;20521;-63
2024/01/05 01:10:26;;;;;;;6.90;4.35;;;;;;;;;;1034058;28;20149;-66
2024/01/05 01:10:57;;;;;;;7.82;3.80;;;;;;;;;;1033574;28;20076;-65
2024/01/05 01:11:28;;;;;;;7.80;4.30;;;;;;;;;;1032752;28;20045;-66
2024/01/05 01:11:58;;;;;;;6.47;4.30;;;;;;;;;;1033634;28;20460;-65
2024/01/05 01:12:29;;;;;;;4.75;4.20;;;;;;;;;;1032150;28;20372;-63
2024/01/05 01:13:01;;;;;;;5.32;4.00;;;;;;;;;;1031283;28;20050;-65
2024/01/05 01:13:32;;;;;;;5.18;3.75;;;;;;;;;;1030579;28;20046;-65
2024/01/05 01:14:02;;;;;;;10.05;4.78;;;;;;;;;;1030959;28;20107;-64
2024/01/05 01:14:33;;;;;;;6.70;3.95;;;;;;;;;;1029410;28;20054;-64
2024/01/05 01:15:04;;;;;;;5.88;4.20;;;;;;;;;;1031774;28;20410;-63
2024/01/05 01:15:34;;;;;;;7.97;4.50;;;;;;;;;;1030717;28;20054;-63
2024/01/05 01:16:05;;;;;;;8.73;5.10;;;;;;;;;;1034241;28;20837;-64
2024/01/05 01:16:35;;;;;;;6.70;3.85;;;;;;;;;;1033939;28;20054;-65
2024/01/05 01:17:06;;;;;;;6.78;4.40;;;;;;;;;;1033183;28;20045;-64
2024/01/05 01:17:36;;;;;;;5.05;3.95;;;;;;;;;;1034273;28;20090;-65
2024/01/05 01:18:07;;;;;;;6.03;4.05;;;;;;;;;;1029280;28;20069;-63
2024/01/05 01:18:38;;;;;;;5.97;4.57;;;;;;;;;;1031265;28;20050;-65
2024/01/05 01:19:09;;;;;;;5.10;4.32;;;;;;;;;;1032315;28;20088;-64
2024/01/05 01:19:39;;;;;;;6.60;3.78;;;;;;;;;;1030021;28;20629;-63
2024/01/05 01:20:10;;;;;;;6.00;4.45;;;;;;;;;;1031125;28;20972;-64
2024/01/05 01:20:40;;;;;;;5.30;4.30;;;;;;;;;;1030342;28;20065;-64
2024/01/05 01:21:11;;;;;;;5.28;3.85;;;;;;;;;;1030975;28;20053;-64
2024/01/05 01:21:41;;;;;;;6.90;4.38;;;;;;;;;;1032618;28;20564;-64
2024/01/05 01:22:12;;;;;;;5.78;4.13;;;;;;;;;;1034642;28;20056;-65
2024/01/05 01:22:43;;;;;;;5.70;4.35;;;;;;;;;;1035600;28;20063;-65
2024/01/05 01:23:13;;;;;;;7.40;4.93;;;;;;;;;;1037530;28;20056;-65
2024/01/05 01:23:44;;;;;;;6.07;4.00;;;;;;;;;;1036474;28;20060;-64
2024/01/05 01:24:14;;;;;;;7.75;4.35;;;;;;;;;;1035839;28;20124;-65
2024/01/05 01:24:45;;;;;;;9.98;4.70;;;;;;;;;;1034368;28;20045;-64
2024/01/05 01:25:16;;;;;;;6.25;3.85;;;;;;;;;;1035223;28;20524;-65
2024/01/05 01:25:47;;;;;;;8.27;4.70;;;;;;;;;;1034286;28;20049;-64
2024/01/05 01:26:17;;;;;;;7.15;4.90;;;;;;;;;;1034551;28;20051;-64
2024/01/05 01:26:48;;;;;;;7.30;4.68;;;;;;;;;;1035151;28;20095;-63
2024/01/05 01:27:18;;;;;;;7.03;4.38;;;;;;;;;;1034324;28;20053;-65
2024/01/05 01:27:49;;;;;;;5.05;3.80;;;;;;;;;;1033908;28;20049;-63
2024/01/05 01:28:19;;;;;;;5.88;4.97;;;;;;;;;;1034282;28;20054;-65
2024/01/05 01:28:50;;;;;;;7.40;4.50;;;;;;;;;;1035029;28;20100;-64
2024/01/05 01:29:20;;;;;;;6.28;4.47;;;;;;;;;;1033835;28;20060;-66
2024/01/05 01:29:51;;;;;;;6.00;3.72;;;;;;;;;;1034689;28;20163;-64
2024/01/05 01:30:21;;;;;;;6.55;4.38;;;;;;;;;;1035740;28;20045;-65
2024/01/05 01:30:52;;;;;;;6.53;4.65;;;;;;;;;;1035608;28;20084;-65
2024/01/05 01:31:22;;;;;;;7.95;4.75;;;;;;;;;;1035871;28;20680;-65
2024/01/05 01:31:53;;;;;;;5.30;4.05;;;;;;;;;;1035409;28;20141;-63
2024/01/05 01:32:23;;;;;;;6.78;4.55;;;;;;;;;;1037581;28;20045;-65
2024/01/05 01:32:54;;;;;;;6.47;4.13;;;;;;;;;;1033038;28;20104;-65
2024/01/05 01:33:24;;;;;;;6.35;4.32;;;;;;;;;;1036266;28;20053;-63
2024/01/05 01:33:55;;;;;;;6.00;4.75;;;;;;;;;;1035650;28;20053;-64
2024/01/05 01:34:26;;;;;;;7.15;4.38;;;;;;;;;;1036194;28;21622;-64
2024/01/05 01:34:56;;;;;;;6.60;4.78;;;;;;;;;;1035977;28;20075;-64
2024/01/05 01:35:27;;;;;;;6.00;3.95;;;;;;;;;;1031655;28;20487;-63
2024/01/05 01:35:57;;;;;;;4.70;4.03;;;;;;;;;;1035728;28;20103;-64
2024/01/05 01:36:28;;;;;;;6.78;4.45;;;;;;;;;;1035309;28;20049;-64
2024/01/05 01:36:58;;;;;;;7.47;4.47;;;;;;;;;;1035950;28;20076;-63
2024/01/05 01:37:29;;;;;;;6.55;4.43;;;;;;;;;;1034733;28;20050;-64
2024/01/05 01:38:00;;;;;;;7.20;3.72;;;;;;;;;;1034771;28;20045;-63
2024/01/05 01:38:30;;;;;;;6.63;4.68;;;;;;;;;;1034901;28;20049;-65
2024/01/05 01:39:00;;;;;;;7.05;4.35;;;;;;;;;;1034088;28;20049;-65
2024/01/05 01:39:32;;;;;;;5.63;3.88;;;;;;;;;;1036804;28;20053;-66
2024/01/05 01:40:04;;;;;;;5.13;4.13;;;;;;;;;;1036515;28;20053;-65
2024/01/05 01:40:35;;;;;;;7.32;4.45;;;;;;;;;;1033599;28;20050;-65
2024/01/05 01:41:05;;;;;;;5.97;4.57;;;;;;;;;;1034480;28;20050;-64
2024/01/05 01:41:36;;;;;;;6.93;4.18;;;;;;;;;;1034296;28;21242;-65
2024/01/05 01:42:06;;;;;;;6.82;3.90;;;;;;;;;;1034112;28;20057;-64
2024/01/05 01:42:37;;;;;;;5.85;4.15;;;;;;;;;;1034549;28;20045;-65
2024/01/05 01:43:20;;;;;;;6.07;4.03;;;;;;;;;;1036081;28;20095;-65
2024/01/05 01:43:51;;;;;;;4.05;3.65;;;;;;;;;;1034110;28;20054;-63
2024/01/05 01:44:21;;;;;;;5.05;3.78;;;;;;;;;;1034925;28;20050;-63
2024/01/05 01:44:52;;;;;;;4.97;3.60;;;;;;;;;;1034412;28;21738;-64
2024/01/05 01:45:22;;;;;;;8.82;4.25;;;;;;;;;;1035530;28;20202;-64
2024/01/05 01:45:55;;;;;;;6.05;3.92;;;;;;;;;;1035683;28;20104;-65
2024/01/05 01:46:26;;;;;;;4.68;3.40;;;;;;;;;;1035078;28;20049;-63
2024/01/05 01:46:57;;;;;;;6.53;3.75;;;;;;;;;;1035481;28;20053;-65
2024/01/05 01:47:28;;;;;;;5.40;4.05;;;;;;;;;;1034882;28;20124;-65
2024/01/05 01:47:59;;;;;;;7.18;4.93;;;;;;;;;;1036462;28;20053;-65
2024/01/05 01:48:30;;;;;;;5.43;3.63;;;;;;;;;;1034918;28;20505;-65
2024/01/05 01:49:00;;;;;;;8.07;4.40;;;;;;;;;;1036420;28;20158;-63
2024/01/05 01:49:31;;;;;;;6.03;4.40;;;;;;;;;;1035552;28;20460;-64
2024/01/05 01:50:02;;;;;;;6.47;4.72;;;;;;;;;;1037001;28;20421;-64
2024/01/05 01:50:32;;;;;;;8.70;4.13;;;;;;;;;;1035192;28;20049;-64
2024/01/05 01:51:03;;;;;;;9.05;5.03;;;;;;;;;;1030593;28;20054;-65
2024/01/05 01:51:34;;;;;;;10.52;4.68;;;;;;;;;;1030798;28;20057;-65
2024/01/05 01:52:06;;;;;;;8.32;5.30;;;;;;;;;;1031939;28;20046;-67
2024/01/05 01:52:38;;;;;;;7.53;4.72;;;;;;;;;;1032010;28;20747;-65
2024/01/05 01:53:11;;;;;;;6.70;4.60;;;;;;;;;;1030448;28;20125;-63
2024/01/05 01:53:42;;;;;;;8.98;5.07;;;;;;;;;;1032353;28;20153;-65
2024/01/05 01:54:13;;;;;;;7.22;4.22;;;;;;;;;;1032263;28;20057;-64
2024/01/05 01:54:44;;;;;;;5.55;3.92;;;;;;;;;;1034300;28;20046;-64
2024/01/05 01:55:16;;;;;;;7.32;4.78;;;;;;;;;;1034723;28;20050;-65
2024/01/05 01:55:48;;;;;;;7.30;5.35;;;;;;;;;;1030937;28;20053;-65
2024/01/05 01:56:19;;;;;;;6.63;4.32;;;;;;;;;;1031181;28;20042;-64
2024/01/05 01:56:50;;;;;;;5.85;4.13;;;;;;;;;;1031092;28;20069;-65
2024/01/05 01:57:21;;;;;;;6.15;4.43;;;;;;;;;;1031431;28;20073;-66
2024/01/05 01:57:51;;;;;;;5.43;4.05;;;;;;;;;;1032057;28;20056;-64
2024/01/05 01:58:23;;;;;;;7.00;4.53;;;;;;;;;;1030726;28;20050;-65
2024/01/05 01:58:53;;;;;;;6.53;4.15;;;;;;;;;;1032134;28;20057;-63
2024/01/05 01:59:24;;;;;;;5.22;4.13;;;;;;;;;;1032349;28;20054;-64
2024/01/05 01:59:54;;;;;;;6.53;4.32;;;;;;;;;;1033885;28;20048;-65
2024/01/05 02:00:25;;;;;;;6.43;4.25;;;;;;;;;;1037550;28;20548;-65
2024/01/05 02:00:55;;;;;;;6.60;4.05;;;;;;;;;;1037093;28;20049;-64
2024/01/05 02:01:26;;;;;;;6.30;3.63;;;;;;;;;;1036907;28;20446;-65
2024/01/05 02:01:57;;;;;;;6.95;4.60;;;;;;;;;;1036306;28;20819;-63
2024/01/05 02:02:29;;;;;;;6.45;4.38;;;;;;;;;;1037648;28;20099;-65
2024/01/05 02:03:03;;;;;;;4.38;3.88;;;;;;;;;;1035056;28;20049;-65
2024/01/05 02:03:34;;;;;;;8.27;4.07;;;;;;;;;;1035506;28;21024;-64
2024/01/05 02:04:05;;;;;;;5.25;4.13;;;;;;;;;;1035964;28;20045;-65
2024/01/05 02:04:38;;;;;;;6.85;3.78;;;;;;;;;;1037896;28;20510;-66
2024/01/05 02:05:09;;;;;;;7.22;4.47;;;;;;;;;;1039997;28;20045;-64
2024/01/05 02:05:41;;;;;;;6.57;4.78;;;;;;;;;;1039230;28;20050;-65
2024/01/05 02:06:11;;;;;;;5.53;3.60;;;;;;;;;;1038739;28;20073;-64
2024/01/05 02:06:44;;;;;;;3.53;2.92;;;;;;;;;;1035855;28;20069;-64
2024/01/05 02:07:15;;;;;;;4.00;3.38;;;;;;;;;;1035521;28;20081;-65
2024/01/05 02:07:46;;;;;;;6.85;3.78;;;;;;;;;;1035195;28;20067;-65
2024/01/05 02:08:16;;;;;;;4.82;3.55;;;;;;;;;;1036079;28;20965;-65
2024/01/05 02:08:47;;;;;;;5.05;3.45;;;;;;;;;;1035375;28;20054;-64
2024/01/05 02:09:18;;;;;;;5.55;3.83;;;;;;;;;;1036033;28;20046;-65
2024/01/05 02:09:49;;;;;;;7.60;4.25;;;;;;;;;;1035525;28;20482;-63
2024/01/05 02:10:19;;;;;;;5.22;3.70;;;;;;;;;;1036570;28;23338;-63
2024/01/05 02:10:50;;;;;;;5.32;3.42;;;;;;;;;;1038673;28;20405;-63
2024/01/05 02:11:20;;;;;;;6.43;3.75;;;;;;;;;;1038223;28;20516;-64
2024/01/05 02:11:51;;;;;;;4.70;3.25;;;;;;;;;;1038455;28;20786;-64
2024/01/05 02:12:21;;;;;;;2.75;2.47;;;;;;;;;;1037600;28;20512;-63
2024/01/05 02:12:52;;;;;;;4.20;3.10;;;;;;;;;;1041154;28;20114;-63
2024/01/05 02:13:22;;;;;;;4.82;3.22;;;;;;;;;;1040329;28;20044;-63
2024/01/05 02:13:53;;;;;;;4.85;2.60;;;;;;;;;;1040046;28;20517;-64
2024/01/05 02:14:24;;;;;;;5.65;3.35;;;;;;;;;;1040069;28;20124;-64
2024/01/05 02:14:54;;;;;;;3.67;2.65;;;;;;;;;;1034847;28;20049;-66
2024/01/05 02:15:26;;;;;;;3.85;2.58;;;;;;;;;;1035214;28;20051;-64
2024/01/05 02:15:56;;;;;;;5.25;3.13;;;;;;;;;;1034906;28;20429;-64
2024/01/05 02:16:27;;;;;;;4.13;2.75;;;;;;;;;;1035522;28;20492;-64
2024/01/05 02:16:59;;;;;;;4.53;3.28;;;;;;;;;;1034646;28;20046;-64
2024/01/05 02:17:33;;;;;;;3.38;2.70;;;;;;;;;;1034930;28;22245;-63
2024/01/05 02:18:12;;;;;;;6.13;3.47;;;;;;;;;;1034893;28;20068;-63
2024/01/05 02:18:49;;;;;;;3.47;2.88;;;;;;;;;;1036053;28;21800;-65
2024/01/05 02:19:20;;;;;;;4.88;3.00;;;;;;;;;;1036651;28;20099;-63
2024/01/05 02:19:50;;;;;;;5.90;3.33;;;;;;;;;;1035826;28;20108;-63
2024/01/05 02:20:21;;;;;;;4.55;3.38;;;;;;;;;;1036566;28;20060;-64
2024/01/05 02:20:51;;;;;;;4.32;3.42;;;;;;;;;;1035859;28;20049;-64
2024/01/05 02:21:26;;;;;;;4.20;3.25;;;;;;;;;;1037283;28;20506;-65
2024/01/05 02:21:59;;;;;;;3.85;2.67;;;;;;;;;;1035833;28;20053;-65
2024/01/05 02:22:32;;;;;;;4.65;2.80;;;;;;;;;;1034765;28;20073;-65
2024/01/05 02:23:07;;;;;;;4.70;3.42;;;;;;;;;;1034809;28;20132;-65
2024/01/05 02:23:37;;;;;;;3.47;2.80;;;;;;;;;;1034887;28;20608;-66
2024/01/05 02:24:08;;;;;;;4.57;2.92;;;;;;;;;;1034829;28;20674;-63
2024/01/05 02:24:39;;;;;;;4.82;2.80;;;;;;;;;;1035990;28;20144;-65
2024/01/05 02:25:09;;;;;;;3.75;2.53;;;;;;;;;;1037625;28;20053;-63
2024/01/05 02:25:40;;;;;;;4.80;3.08;;;;;;;;;;1037589;28;20049;-64
2024/01/05 02:26:10;;;;;;;6.18;3.33;;;;;;;;;;1037344;28;20053;-65
2024/01/05 02:26:41;;;;;;;3.97;2.95;;;;;;;;;;1033436;28;20063;-64
2024/01/05 02:27:11;;;;;;;3.30;2.95;;;;;;;;;;1031193;28;21152;-64
2024/01/05 02:27:42;;;;;;;4.43;2.97;;;;;;;;;;1030658;28;21999;-63
2024/01/05 02:28:13;;;;;;;5.93;3.75;;;;;;;;;;1031510;28;20802;-64
2024/01/05 02:28:43;;;;;;;6.38;3.50;;;;;;;;;;1031250;28;20577;-63
2024/01/05 02:29:20;;;;;;;3.88;3.08;;;;;;;;;;1031803;28;20062;-64
2024/01/05 02:29:50;;;;;;;3.75;3.10;;;;;;;;;;1030914;28;20502;-64
2024/01/05 02:30:21;;;;;;;3.20;2.90;;;;;;;;;;1030242;28;20054;-66
2024/01/05 02:30:55;;;;;;;4.32;2.80;;;;;;;;;;1031038;28;20105;-63
2024/01/05 02:31:26;;;;;;;3.30;2.85;;;;;;;;;;1031865;28;20050;-64
2024/01/05 02:31:56;;;;;;;3.92;2.83;;;;;;;;;;1030630;28;20058;-64
2024/01/05 02:32:27;;;;;;;4.18;2.75;;;;;;;;;;1030493;28;20050;-65
2024/01/05 02:32:58;;;;;;;3.85;3.00;;;;;;;;;;1031476;28;22494;-64
2024/01/05 02:33:28;;;;;;;4.07;3.00;;;;;;;;;;1031861;28;20061;-64
2024/01/05 02:33:59;;;;;;;3.05;2.42;;;;;;;;;;1033169;28;20074;-65
2024/01/05 02:34:29;;;;;;;3.88;2.80;;;;;;;;;;1031780;28;20054;-66
2024/01/05 02:34:59;;;;;;;4.65;2.55;;;;;;;;;;1033846;28;20058;-64
2024/01/05 02:35:30;;;;;;;3.60;2.90;;;;;;;;;;1030935;28;20050;-65
2024/01/05 02:36:00;;;;;;;3.90;2.90;;;;;;;;;;1034424;28;20099;-64
2024/01/05 02:36:31;;;;;;;4.32;2.38;;;;;;;;;;1031417;28;20561;-65
2024/01/05 02:37:02;;;;;;;5.18;3.20;;;;;;;;;;1030565;28;20042;-64
2024/01/05 02:37:32;;;;;;;3.35;2.88;;;;;;;;;;1026522;28;20672;-64
2024/01/05 02:38:03;;;;;;;4.47;2.80;;;;;;;;;;1031121;28;20062;-64
2024/01/05 02:38:33;;;;;;;5.63;2.88;;;;;;;;;;1034312;28;20046;-64
2024/01/05 02:39:04;;;;;;;5.75;2.97;;;;;;;;;;1037117;28;20584;-65
2024/01/05 02:39:35;;;;;;;3.33;2.92;;;;;;;;;;1035166;28;20061;-64
2024/01/05 02:40:06;;;;;;;3.88;2.50;;;;;;;;;;1035436;28;20046;-63
2024/01/05 02:40:37;;;;;;;3.75;2.80;;;;;;;;;;1034675;28;20053;-64
2024/01/05 02:41:07;;;;;;;2.58;2.35;;;;;;;;;;1034539;28;20060;-64
2024/01/05 02:41:38;;;;;;;3.22;2.45;;;;;;;;;;1037628;28;20436;-63
2024/01/05 02:42:08;;;;;;;2.63;2.40;;;;;;;;;;1037756;28;20049;-63
2024/01/05 02:42:39;;;;;;;4.38;2.38;;;;;;;;;;1035440;28;20145;-64
2024/01/05 02:43:10;;;;;;;2.55;2.10;;;;;;;;;;1036085;28;20050;-64
2024/01/05 02:43:40;;;;;;;2.25;2.05;;;;;;;;;;1035172;28;20140;-64
2024/01/05 02:44:11;;;;;;;3.35;2.35;;;;;;;;;;1036160;28;20065;-65
2024/01/05 02:44:42;;;;;;;4.20;2.70;;;;;;;;;;1034598;28;20053;-64
2024/01/05 02:45:12;;;;;;;2.80;2.30;;;;;;;;;;1035271;28;20420;-64
2024/01/05 02:45:43;;;;;;;4.40;2.95;;;;;;;;;;1035194;28;20536;-65
2024/01/05 02:46:13;;;;;;;2.95;2.35;;;;;;;;;;1035959;28;20049;-65
2024/01/05 02:46:44;;;;;;;4.35;2.72;;;;;;;;;;1035158;28;20053;-64
2024/01/05 02:47:15;;;;;;;3.47;2.05;;;;;;;;;;1036830;28;20049;-66
2024/01/05 02:47:46;;;;;;;3.53;2.92;;;;;;;;;;1035562;28;20053;-65
2024/01/05 02:48:16;;;;;;;2.92;2.47;;;;;;;;;;1035807;28;20048;-66
2024/01/05 02:48:47;;;;;;;2.83;2.22;;;;;;;;;;1034193;28;20053;-63
2024/01/05 02:49:17;;;;;;;2.05;1.85;;;;;;;;;;1035288;28;20045;-63
2024/01/05 02:49:48;;;;;;;3.38;2.72;;;;;;;;;;1036483;28;20183;-64
2024/01/05 02:50:19;;;;;;;4.38;2.50;;;;;;;;;;1035172;28;20061;-64
2024/01/05 02:50:50;;;;;;;3.15;2.47;;;;;;;;;;1035636;28;20068;-65
2024/01/05 02:51:20;;;;;;;2.75;2.38;;;;;;;;;;1034275;28;20136;-63
2024/01/05 02:51:51;;;;;;;2.47;2.28;;;;;;;;;;1034342;28;20049;-64
2024/01/05 02:52:21;;;;;;;3.38;1.90;;;;;;;;;;1034607;28;20046;-64
2024/01/05 02:52:52;;;;;;;3.50;2.35;;;;;;;;;;1035756;28;20048;-65
2024/01/05 02:53:22;;;;;;;7.55;2.75;;;;;;;;;;1035672;28;20061;-63
2024/01/05 02:53:53;;;;;;;3.47;2.70;;;;;;;;;;1035376;28;20053;-65
2024/01/05 02:54:24;;;;;;;2.67;2.05;;;;;;;;;;1035539;28;20100;-65
2024/01/05 02:54:55;;;;;;;3.67;2.40;;;;;;;;;;1038023;28;20049;-65
2024/01/05 02:55:26;;;;;;;3.20;2.47;;;;;;;;;;1035591;28;20050;-65
2024/01/05 02:55:57;;;;;;;3.75;2.40;;;;;;;;;;1035749;28;20102;-63
2024/01/05 02:56:27;;;;;;;3.10;2.80;;;;;;;;;;1035929;28;20034;-64
2024/01/05 02:56:58;;;;;;;2.75;2.25;;;;;;;;;;1034999;28;20085;-64
2024/01/05 02:57:28;;;;;;;3.30;2.20;;;;;;;;;;1035346;28;20060;-63
2024/01/05 02:58:02;;;;;;;4.10;2.25;;;;;;;;;;1034110;28;20107;-65
2024/01/05 02:58:32;;;;;;;4.65;2.97;;;;;;;;;;1034734;28;20034;-65
2024/01/05 02:59:04;;;;;;;4.53;2.40;;;;;;;;;;1035292;28;20053;-65
2024/01/05 02:59:35;;;;;;;2.67;2.47;;;;;;;;;;1036431;28;20109;-65
2024/01/05 03:00:06;;;;;;;5.40;2.78;;;;;;;;;;1036299;28;20504;-65
2024/01/05 03:00:36;;;;;;;3.92;2.47;;;;;;;;;;1036451;28;20152;-64
2024/01/05 03:02:40;;;;;;;2.25;2.00;;;;;;;;;;1036230;28;22560;-65
2024/01/05 03:03:10;;;;;;;7.50;3.08;;;;;;;;;;1038909;28;20481;-65
2024/01/05 03:03:46;;;;;;;3.35;2.72;;;;;;;;;;1036940;28;20098;-65
2024/01/05 03:04:17;;;;;;;4.50;2.50;;;;;;;;;;1037325;28;20049;-65
2024/01/05 03:04:49;;;;;;;2.90;2.40;;;;;;;;;;1038074;28;20141;-63
2024/01/05 03:05:19;;;;;;;2.65;2.22;;;;;;;;;;1035111;28;20251;-63
2024/01/05 03:05:50;;;;;;;3.70;2.80;;;;;;;;;;1035859;28;20045;-65
2024/01/05 03:06:20;;;;;;;3.88;2.70;;;;;;;;;;1035490;28;20050;-65
2024/01/05 03:06:51;;;;;;;4.78;2.83;;;;;;;;;;1035245;28;20057;-65
2024/01/05 03:07:22;;;;;;;5.10;2.58;;;;;;;;;;1035511;28;20085;-65